sensor_id;sensor_type;location;lat;lon;timestamp;pressure;altitude;pressure_sealevel;temperature;humidity
34081;BME280;20358;50.272;19.026;2023-01-13T00:00:04;98009.84;;;4.55;63.02
34081;BME280;20358;50.272;19.026;2023-01-13T00:03:15;98031.09;;;4.65;63.31
34081;BME280;20358;50.272;19.026;2023-01-13T00:06:23;98023.66;;;4.73;62.79
34081;BME280;20358;50.272;19.026;2023-01-13T00:09:34;98020.88;;;4.76;62.65
34081;BME280;20358;50.272;19.026;2023-01-13T00:12:40;98005.28;;;4.74;62.23
34081;BME280;20358;50.272;19.026;2023-01-13T00:15:54;98001.53;;;4.78;62.91
34081;BME280;20358;50.272;19.026;2023-01-13T00:19:01;98000.53;;;4.81;62.68
34081;BME280;20358;50.272;19.026;2023-01-13T00:22:07;97995.28;;;4.81;62.64
34081;BME280;20358;50.272;19.026;2023-01-13T00:25:15;98003.06;;;4.82;62.41
34081;BME280;20358;50.272;19.026;2023-01-13T00:28:22;98009.31;;;4.80;62.49
34081;BME280;20358;50.272;19.026;2023-01-13T00:31:28;98004.84;;;4.82;62.86
34081;BME280;20358;50.272;19.026;2023-01-13T00:34:34;98008.94;;;4.86;62.30
34081;BME280;20358;50.272;19.026;2023-01-13T00:37:40;98004.56;;;4.86;62.16
34081;BME280;20358;50.272;19.026;2023-01-13T00:40:56;98007.09;;;4.88;62.36
34081;BME280;20358;50.272;19.026;2023-01-13T00:44:02;98008.03;;;4.87;61.89
34081;BME280;20358;50.272;19.026;2023-01-13T00:47:05;98003.56;;;4.89;61.97
34081;BME280;20358;50.272;19.026;2023-01-13T00:50:11;98007.69;;;4.93;62.22
34081;BME280;20358;50.272;19.026;2023-01-13T00:53:17;98014.69;;;4.93;61.81
34081;BME280;20358;50.272;19.026;2023-01-13T00:56:25;98013.69;;;4.95;61.53
34081;BME280;20358;50.272;19.026;2023-01-13T00:59:46;98009.19;;;4.97;61.43
34081;BME280;20358;50.272;19.026;2023-01-13T01:02:52;98008.28;;;4.98;61.50
34081;BME280;20358;50.272;19.026;2023-01-13T01:06:04;98013.31;;;5.01;61.32
34081;BME280;20358;50.272;19.026;2023-01-13T01:09:12;98010.53;;;5.04;61.46
34081;BME280;20358;50.272;19.026;2023-01-13T01:12:23;98010.25;;;5.09;60.71
34081;BME280;20358;50.272;19.026;2023-01-13T01:15:28;98009.25;;;5.11;61.00
34081;BME280;20358;50.272;19.026;2023-01-13T01:18:37;97999.38;;;5.16;60.89
34081;BME280;20358;50.272;19.026;2023-01-13T01:21:44;98007.84;;;5.20;60.67
34081;BME280;20358;50.272;19.026;2023-01-13T01:24:50;97994.69;;;5.21;60.48
34081;BME280;20358;50.272;19.026;2023-01-13T01:27:59;98003.13;;;5.26;60.42
34081;BME280;20358;50.272;19.026;2023-01-13T01:31:06;97973.56;;;5.24;60.40
34081;BME280;20358;50.272;19.026;2023-01-13T01:34:12;97988.91;;;5.30;59.92
34081;BME280;20358;50.272;19.026;2023-01-13T01:37:24;97979.09;;;5.34;59.94
34081;BME280;20358;50.272;19.026;2023-01-13T01:40:35;97965.16;;;5.33;59.66
34081;BME280;20358;50.272;19.026;2023-01-13T01:43:52;97964.03;;;5.37;59.69
34081;BME280;20358;50.272;19.026;2023-01-13T01:47:12;97965.78;;;5.38;59.46
34081;BME280;20358;50.272;19.026;2023-01-13T01:50:27;97958.66;;;5.40;59.55
34081;BME280;20358;50.272;19.026;2023-01-13T01:53:33;97951.38;;;5.45;59.97
34081;BME280;20358;50.272;19.026;2023-01-13T01:56:42;97949.31;;;5.50;59.19
34081;BME280;20358;50.272;19.026;2023-01-13T01:59:54;97950.81;;;5.55;58.80
34081;BME280;20358;50.272;19.026;2023-01-13T02:03:05;97947.47;;;5.52;58.09
34081;BME280;20358;50.272;19.026;2023-01-13T02:06:13;97958.13;;;5.49;58.58
34081;BME280;20358;50.272;19.026;2023-01-13T02:09:21;97941.00;;;5.44;58.63
34081;BME280;20358;50.272;19.026;2023-01-13T02:12:29;97936.84;;;5.40;58.79
34081;BME280;20358;50.272;19.026;2023-01-13T02:15:46;97937.41;;;5.31;58.95
34081;BME280;20358;50.272;19.026;2023-01-13T02:19:09;97936.72;;;5.27;59.07
34081;BME280;20358;50.272;19.026;2023-01-13T02:22:50;97926.72;;;5.20;59.64
34081;BME280;20358;50.272;19.026;2023-01-13T02:26:50;97916.53;;;5.15;59.23
34081;BME280;20358;50.272;19.026;2023-01-13T02:30:25;97916.69;;;5.12;59.35
34081;BME280;20358;50.272;19.026;2023-01-13T02:34:04;97906.59;;;5.06;59.34
34081;BME280;20358;50.272;19.026;2023-01-13T02:37:21;97903.41;;;5.01;59.61
34081;BME280;20358;50.272;19.026;2023-01-13T02:40:35;97906.22;;;4.98;59.81
34081;BME280;20358;50.272;19.026;2023-01-13T02:43:54;97901.91;;;4.97;59.66
34081;BME280;20358;50.272;19.026;2023-01-13T02:47:17;97906.41;;;4.95;60.02
34081;BME280;20358;50.272;19.026;2023-01-13T02:50:33;97894.97;;;4.96;60.07
34081;BME280;20358;50.272;19.026;2023-01-13T02:53:47;97902.75;;;4.98;60.20
34081;BME280;20358;50.272;19.026;2023-01-13T02:57:00;97872.06;;;4.85;59.89
34081;BME280;20358;50.272;19.026;2023-01-13T03:00:11;97886.22;;;4.97;60.21
34081;BME280;20358;50.272;19.026;2023-01-13T03:03:22;97897.63;;;5.10;59.84
34081;BME280;20358;50.272;19.026;2023-01-13T03:06:38;97901.84;;;5.13;59.71
34081;BME280;20358;50.272;19.026;2023-01-13T03:10:00;97895.69;;;5.14;59.75
34081;BME280;20358;50.272;19.026;2023-01-13T03:13:24;97890.44;;;5.14;59.85
34081;BME280;20358;50.272;19.026;2023-01-13T03:16:55;97878.97;;;5.16;59.83
34081;BME280;20358;50.272;19.026;2023-01-13T03:20:20;97877.16;;;5.17;59.68
34081;BME280;20358;50.272;19.026;2023-01-13T03:23:35;97874.66;;;5.15;59.60
34081;BME280;20358;50.272;19.026;2023-01-13T03:26:58;97877.53;;;5.11;60.00
34081;BME280;20358;50.272;19.026;2023-01-13T03:30:14;97889.03;;;5.08;59.91
34081;BME280;20358;50.272;19.026;2023-01-13T03:33:28;97875.94;;;5.08;60.15
34081;BME280;20358;50.272;19.026;2023-01-13T03:36:45;97871.47;;;5.10;59.91
34081;BME280;20358;50.272;19.026;2023-01-13T03:40:01;97874.16;;;5.09;59.91
34081;BME280;20358;50.272;19.026;2023-01-13T03:43:15;97878.47;;;5.10;59.99
34081;BME280;20358;50.272;19.026;2023-01-13T03:46:48;97876.88;;;5.07;59.97
34081;BME280;20358;50.272;19.026;2023-01-13T03:50:06;97870.97;;;5.04;60.22
34081;BME280;20358;50.272;19.026;2023-01-13T03:53:24;97864.44;;;4.97;60.27
34081;BME280;20358;50.272;19.026;2023-01-13T03:56:39;97878.53;;;4.94;60.61
34081;BME280;20358;50.272;19.026;2023-01-13T03:59:53;97874.25;;;4.93;60.63
34081;BME280;20358;50.272;19.026;2023-01-13T04:03:19;97876.03;;;4.93;60.33
34081;BME280;20358;50.272;19.026;2023-01-13T04:06:40;97878.53;;;4.94;60.54
34081;BME280;20358;50.272;19.026;2023-01-13T04:10:00;97872.94;;;5.00;60.56
34081;BME280;20358;50.272;19.026;2023-01-13T04:13:13;97879.59;;;5.06;60.35
34081;BME280;20358;50.272;19.026;2023-01-13T04:16:24;97875.84;;;5.10;60.47
34081;BME280;20358;50.272;19.026;2023-01-13T04:19:30;97871.09;;;5.16;60.28
34081;BME280;20358;50.272;19.026;2023-01-13T04:22:37;97879.88;;;5.15;59.80
34081;BME280;20358;50.272;19.026;2023-01-13T04:25:46;97877.38;;;5.14;59.82
34081;BME280;20358;50.272;19.026;2023-01-13T04:28:53;97869.22;;;5.18;60.07
34081;BME280;20358;50.272;19.026;2023-01-13T04:31:58;97871.91;;;5.17;59.84
34081;BME280;20358;50.272;19.026;2023-01-13T04:35:05;97873.72;;;5.16;60.02
34081;BME280;20358;50.272;19.026;2023-01-13T04:38:13;97874.66;;;5.15;59.94
34081;BME280;20358;50.272;19.026;2023-01-13T04:41:24;97864.00;;;5.18;59.60
34081;BME280;20358;50.272;19.026;2023-01-13T04:44:29;97854.09;;;5.23;59.91
34081;BME280;20358;50.272;19.026;2023-01-13T04:47:37;97858.19;;;5.27;59.58
34081;BME280;20358;50.272;19.026;2023-01-13T04:50:43;97855.69;;;5.26;59.33
34081;BME280;20358;50.272;19.026;2023-01-13T04:53:49;97850.25;;;5.29;59.42
34081;BME280;20358;50.272;19.026;2023-01-13T04:56:57;97857.34;;;5.27;59.57
34081;BME280;20358;50.272;19.026;2023-01-13T05:00:05;97860.81;;;5.27;59.44
34081;BME280;20358;50.272;19.026;2023-01-13T05:03:13;97858.84;;;5.31;59.31
34081;BME280;20358;50.272;19.026;2023-01-13T05:06:20;97863.06;;;5.33;59.44
34081;BME280;20358;50.272;19.026;2023-01-13T05:09:25;97867.16;;;5.37;59.09
34081;BME280;20358;50.272;19.026;2023-01-13T05:12:34;97867.97;;;5.39;59.38
34081;BME280;20358;50.272;19.026;2023-01-13T05:15:56;97863.47;;;5.41;59.00
34081;BME280;20358;50.272;19.026;2023-01-13T05:19:21;97867.97;;;5.39;59.15
34081;BME280;20358;50.272;19.026;2023-01-13T05:22:26;97879.44;;;5.37;58.81
34081;BME280;20358;50.272;19.026;2023-01-13T05:25:48;97874.28;;;5.35;59.23
34081;BME280;20358;50.272;19.026;2023-01-13T05:28:56;97866.41;;;5.35;58.83
34081;BME280;20358;50.272;19.026;2023-01-13T05:32:03;97872.50;;;5.36;58.90
34081;BME280;20358;50.272;19.026;2023-01-13T05:35:10;97877.59;;;5.39;58.83
34081;BME280;20358;50.272;19.026;2023-01-13T05:38:17;97881.63;;;5.44;59.08
34081;BME280;20358;50.272;19.026;2023-01-13T05:41:23;97873.75;;;5.44;58.76
34081;BME280;20358;50.272;19.026;2023-01-13T05:44:47;97872.63;;;5.48;58.41
34081;BME280;20358;50.272;19.026;2023-01-13T05:47:53;97868.91;;;5.52;58.67
34081;BME280;20358;50.272;19.026;2023-01-13T05:51:00;97868.91;;;5.52;58.16
34081;BME280;20358;50.272;19.026;2023-01-13T05:54:07;97862.16;;;5.48;58.75
34081;BME280;20358;50.272;19.026;2023-01-13T05:57:13;97874.13;;;5.52;58.05
34081;BME280;20358;50.272;19.026;2023-01-13T06:00:21;97875.78;;;5.53;58.07
34081;BME280;20358;50.272;19.026;2023-01-13T06:03:28;97865.13;;;5.57;58.05
34081;BME280;20358;50.272;19.026;2023-01-13T06:06:35;97877.00;;;5.62;57.84
34081;BME280;20358;50.272;19.026;2023-01-13T06:09:41;97864.59;;;5.66;57.70
34081;BME280;20358;50.272;19.026;2023-01-13T06:12:47;97871.47;;;5.67;57.88
34081;BME280;20358;50.272;19.026;2023-01-13T06:15:57;97870.63;;;5.66;58.01
34081;BME280;20358;50.272;19.026;2023-01-13T06:19:03;97864.00;;;5.61;57.83
34081;BME280;20358;50.272;19.026;2023-01-13T06:22:15;97869.16;;;5.62;58.12
34081;BME280;20358;50.272;19.026;2023-01-13T06:25:31;97880.84;;;5.71;61.22
34081;BME280;20358;50.272;19.026;2023-01-13T06:28:44;97875.00;;;5.94;57.91
34081;BME280;20358;50.272;19.026;2023-01-13T06:31:55;97881.53;;;6.01;59.05
34081;BME280;20358;50.272;19.026;2023-01-13T06:35:06;97878.22;;;6.11;57.26
34081;BME280;20358;50.272;19.026;2023-01-13T06:38:20;97879.31;;;6.22;57.16
34081;BME280;20358;50.272;19.026;2023-01-13T06:41:31;97888.38;;;6.30;59.05
34081;BME280;20358;50.272;19.026;2023-01-13T06:44:53;97881.69;;;6.39;55.92
34081;BME280;20358;50.272;19.026;2023-01-13T06:48:03;97881.91;;;6.36;55.71
34081;BME280;20358;50.272;19.026;2023-01-13T06:51:10;97886.69;;;6.29;56.44
34081;BME280;20358;50.272;19.026;2023-01-13T06:54:16;97878.47;;;6.21;56.36
34081;BME280;20358;50.272;19.026;2023-01-13T06:57:22;97881.59;;;6.13;56.47
34081;BME280;20358;50.272;19.026;2023-01-13T07:00:29;97879.47;;;6.06;56.34
34081;BME280;20358;50.272;19.026;2023-01-13T07:03:39;97881.34;;;6.04;56.27
34081;BME280;20358;50.272;19.026;2023-01-13T07:06:46;97886.59;;;6.04;56.93
34081;BME280;20358;50.272;19.026;2023-01-13T07:09:52;97887.63;;;6.01;57.06
34081;BME280;20358;50.272;19.026;2023-01-13T07:12:59;97888.66;;;5.99;56.79
34081;BME280;20358;50.272;19.026;2023-01-13T07:16:21;97888.19;;;5.92;57.26
34081;BME280;20358;50.272;19.026;2023-01-13T07:19:32;97877.63;;;5.94;57.29
34081;BME280;20358;50.272;19.026;2023-01-13T07:22:38;97888.19;;;5.92;56.52
34081;BME280;20358;50.272;19.026;2023-01-13T07:25:44;97873.31;;;5.93;56.76
34081;BME280;20358;50.272;19.026;2023-01-13T07:28:49;97876.22;;;5.88;57.23
34081;BME280;20358;50.272;19.026;2023-01-13T07:31:56;97878.94;;;5.87;57.25
34081;BME280;20358;50.272;19.026;2023-01-13T07:35:06;97886.06;;;5.85;57.07
34081;BME280;20358;50.272;19.026;2023-01-13T07:38:13;97888.78;;;5.83;56.86
34081;BME280;20358;50.272;19.026;2023-01-13T07:41:18;97892.50;;;5.79;56.82
34081;BME280;20358;50.272;19.026;2023-01-13T07:44:40;97883.72;;;5.80;57.45
34081;BME280;20358;50.272;19.026;2023-01-13T07:47:50;97877.63;;;5.80;57.61
34081;BME280;20358;50.272;19.026;2023-01-13T07:51:04;97880.38;;;5.78;57.23
34081;BME280;20358;50.272;19.026;2023-01-13T07:54:10;97881.19;;;5.79;57.05
34081;BME280;20358;50.272;19.026;2023-01-13T07:57:17;97884.75;;;5.78;57.63
34081;BME280;20358;50.272;19.026;2023-01-13T08:00:23;97874.84;;;5.83;57.93
34081;BME280;20358;50.272;19.026;2023-01-13T08:03:29;97891.47;;;5.82;57.45
34081;BME280;20358;50.272;19.026;2023-01-13T08:06:38;97881.56;;;5.87;56.89
34081;BME280;20358;50.272;19.026;2023-01-13T08:09:44;97879.97;;;5.84;57.11
34081;BME280;20358;50.272;19.026;2023-01-13T08:12:50;97876.41;;;5.85;57.22
34081;BME280;20358;50.272;19.026;2023-01-13T08:16:33;97884.38;;;5.84;57.28
34081;BME280;20358;50.272;19.026;2023-01-13T08:19:39;97886.44;;;5.79;57.25
34081;BME280;20358;50.272;19.026;2023-01-13T08:22:48;97896.16;;;5.77;57.03
34081;BME280;20358;50.272;19.026;2023-01-13T08:25:53;97898.59;;;5.80;57.42
34081;BME280;20358;50.272;19.026;2023-01-13T08:28:59;97897.00;;;5.77;57.31
34081;BME280;20358;50.272;19.026;2023-01-13T08:32:05;97895.44;;;5.75;57.13
34081;BME280;20358;50.272;19.026;2023-01-13T08:35:12;97900.66;;;5.75;57.51
34081;BME280;20358;50.272;19.026;2023-01-13T08:38:22;97902.38;;;5.76;57.33
34081;BME280;20358;50.272;19.026;2023-01-13T08:41:30;97903.47;;;5.86;57.38
34081;BME280;20358;50.272;19.026;2023-01-13T08:44:52;97911.16;;;5.89;56.73
34081;BME280;20358;50.272;19.026;2023-01-13T08:47:59;97904.75;;;5.93;56.78
34081;BME280;20358;50.272;19.026;2023-01-13T08:51:08;97900.81;;;6.00;56.75
34081;BME280;20358;50.272;19.026;2023-01-13T08:54:18;97901.66;;;6.00;56.81
34081;BME280;20358;50.272;19.026;2023-01-13T08:57:27;97900.63;;;6.03;57.09
34081;BME280;20358;50.272;19.026;2023-01-13T09:00:33;97899.16;;;5.99;56.49
34081;BME280;20358;50.272;19.026;2023-01-13T09:03:41;97902.69;;;5.98;56.29
34081;BME280;20358;50.272;19.026;2023-01-13T09:06:49;97899.78;;;6.02;56.93
34081;BME280;20358;50.272;19.026;2023-01-13T09:09:58;97887.31;;;6.06;56.20
34081;BME280;20358;50.272;19.026;2023-01-13T09:13:11;97897.44;;;6.12;56.56
34081;BME280;20358;50.272;19.026;2023-01-13T09:16:18;97895.44;;;6.15;56.82
34081;BME280;20358;50.272;19.026;2023-01-13T09:19:24;97898.03;;;6.30;56.33
34081;BME280;20358;50.272;19.026;2023-01-13T09:22:30;97905.22;;;6.40;55.89
34081;BME280;20358;50.272;19.026;2023-01-13T09:25:42;97903.75;;;6.49;55.38
34081;BME280;20358;50.272;19.026;2023-01-13T09:28:47;97904.19;;;6.55;56.15
34081;BME280;20358;50.272;19.026;2023-01-13T09:31:54;97898.22;;;6.53;55.65
34081;BME280;20358;50.272;19.026;2023-01-13T09:35:00;97889.94;;;6.59;55.05
34081;BME280;20358;50.272;19.026;2023-01-13T09:38:04;97891.22;;;6.66;54.93
34081;BME280;20358;50.272;19.026;2023-01-13T09:41:19;97884.75;;;6.72;55.24
34081;BME280;20358;50.272;19.026;2023-01-13T09:44:50;97882.13;;;6.72;55.32
34081;BME280;20358;50.272;19.026;2023-01-13T09:48:04;97876.09;;;6.70;55.23
34081;BME280;20358;50.272;19.026;2023-01-13T09:51:27;97881.84;;;6.77;55.17
34081;BME280;20358;50.272;19.026;2023-01-13T09:54:45;97871.75;;;6.83;54.18
34081;BME280;20358;50.272;19.026;2023-01-13T09:58:00;97878.06;;;6.81;54.98
34081;BME280;20358;50.272;19.026;2023-01-13T10:01:26;97859.38;;;6.85;54.99
34081;BME280;20358;50.272;19.026;2023-01-13T10:04:40;97860.53;;;6.94;54.72
34081;BME280;20358;50.272;19.026;2023-01-13T10:07:50;97864.66;;;6.98;54.56
34081;BME280;20358;50.272;19.026;2023-01-13T10:11:01;97849.31;;;7.04;54.81
34081;BME280;20358;50.272;19.026;2023-01-13T10:14:41;97854.69;;;7.03;53.84
34081;BME280;20358;50.272;19.026;2023-01-13T10:18:03;97845.13;;;7.02;53.65
34081;BME280;20358;50.272;19.026;2023-01-13T10:21:34;97845.44;;;7.10;54.14
34081;BME280;20358;50.272;19.026;2023-01-13T10:28:50;97839.09;;;7.86;54.31
34081;BME280;20358;50.272;19.026;2023-01-13T10:32:00;97826.44;;;8.17;53.80
34081;BME280;20358;50.272;19.026;2023-01-13T10:35:06;97822.16;;;8.50;53.43
34081;BME280;20358;50.272;19.026;2023-01-13T10:38:16;97818.72;;;8.72;54.59
34081;BME280;20358;50.272;19.026;2023-01-13T10:41:25;97816.25;;;8.93;50.41
34081;BME280;20358;50.272;19.026;2023-01-13T10:44:46;97817.22;;;8.92;50.25
34081;BME280;20358;50.272;19.026;2023-01-13T10:48:12;97816.97;;;8.84;49.00
34081;BME280;20358;50.272;19.026;2023-01-13T10:51:23;97807.25;;;8.73;49.73
34081;BME280;20358;50.272;19.026;2023-01-13T10:54:30;97810.34;;;8.67;50.10
34081;BME280;20358;50.272;19.026;2023-01-13T10:57:36;97806.00;;;8.55;50.75
34081;BME280;20358;50.272;19.026;2023-01-13T11:00:41;97803.59;;;8.52;50.35
34081;BME280;20358;50.272;19.026;2023-01-13T11:03:55;97814.13;;;8.52;50.02
34081;BME280;20358;50.272;19.026;2023-01-13T11:07:02;97798.28;;;8.41;50.81
34081;BME280;20358;50.272;19.026;2023-01-13T11:10:20;97795.41;;;8.33;50.53
34081;BME280;20358;50.272;19.026;2023-01-13T11:13:33;97784.16;;;8.31;50.54
34081;BME280;20358;50.272;19.026;2023-01-13T11:17:10;97803.03;;;8.25;49.82
34081;BME280;20358;50.272;19.026;2023-01-13T11:20:35;97789.13;;;8.23;49.84
34081;BME280;20358;50.272;19.026;2023-01-13T11:24:00;97800.84;;;8.19;50.22
34081;BME280;20358;50.272;19.026;2023-01-13T11:27:15;97802.19;;;8.24;50.85
34081;BME280;20358;50.272;19.026;2023-01-13T11:30:35;97799.66;;;8.23;51.08
34081;BME280;20358;50.272;19.026;2023-01-13T11:33:52;97798.22;;;8.19;50.97
34081;BME280;20358;50.272;19.026;2023-01-13T11:37:14;97795.38;;;8.22;50.58
34081;BME280;20358;50.272;19.026;2023-01-13T11:40:32;97788.53;;;8.19;50.46
34081;BME280;20358;50.272;19.026;2023-01-13T11:43:49;97785.06;;;8.19;51.14
34081;BME280;20358;50.272;19.026;2023-01-13T11:47:00;97794.16;;;8.26;51.13
34081;BME280;20358;50.272;19.026;2023-01-13T11:50:14;97786.28;;;8.26;50.81
34081;BME280;20358;50.272;19.026;2023-01-13T11:53:39;97785.34;;;8.27;51.30
34081;BME280;20358;50.272;19.026;2023-01-13T11:57:17;97777.53;;;8.25;50.75
34081;BME280;20358;50.272;19.026;2023-01-13T12:00:50;97768.63;;;8.39;50.58
34081;BME280;20358;50.272;19.026;2023-01-13T12:04:25;97769.59;;;8.38;50.61
34081;BME280;20358;50.272;19.026;2023-01-13T12:07:43;97768.63;;;8.39;51.43
34081;BME280;20358;50.272;19.026;2023-01-13T12:11:09;97765.94;;;8.28;50.82
34081;BME280;20358;50.272;19.026;2023-01-13T12:14:37;97760.94;;;8.25;51.35
34081;BME280;20358;50.272;19.026;2023-01-13T12:18:29;97769.06;;;8.22;50.96
34081;BME280;20358;50.272;19.026;2023-01-13T12:22:01;97746.75;;;8.04;51.73
34081;BME280;20358;50.272;19.026;2023-01-13T12:25:20;97775.34;;;8.08;51.02
34081;BME280;20358;50.272;19.026;2023-01-13T12:28:44;97781.88;;;8.03;52.08
34081;BME280;20358;50.272;19.026;2023-01-13T12:31:56;97752.03;;;7.91;52.08
34081;BME280;20358;50.272;19.026;2023-01-13T12:35:20;97775.38;;;7.95;51.64
34081;BME280;20358;50.272;19.026;2023-01-13T12:38:39;97780.84;;;7.92;51.63
34081;BME280;20358;50.272;19.026;2023-01-13T12:41:56;97780.41;;;7.98;52.85
34081;BME280;20358;50.272;19.026;2023-01-13T12:45:30;97772.34;;;8.13;53.44
34081;BME280;20358;50.272;19.026;2023-01-13T12:48:45;97777.53;;;8.25;53.31
34081;BME280;20358;50.272;19.026;2023-01-13T12:52:14;97782.75;;;8.38;51.15
34081;BME280;20358;50.272;19.026;2023-01-13T12:55:23;97777.63;;;8.47;53.57
34081;BME280;20358;50.272;19.026;2023-01-13T12:58:30;97775.69;;;8.84;52.81
34081;BME280;20358;50.272;19.026;2023-01-13T13:01:38;97772.59;;;9.01;52.44
34081;BME280;20358;50.272;19.026;2023-01-13T13:04:46;97776.09;;;9.13;50.12
34081;BME280;20358;50.272;19.026;2023-01-13T13:08:06;97783.66;;;9.17;49.76
34081;BME280;20358;50.272;19.026;2023-01-13T13:15:22;97778.38;;;9.40;49.11
34081;BME280;20358;50.272;19.026;2023-01-13T13:18:36;97787.47;;;9.25;49.02
34081;BME280;20358;50.272;19.026;2023-01-13T13:22:20;97782.44;;;9.10;49.36
34081;BME280;20358;50.272;19.026;2023-01-13T13:25:58;97792.91;;;8.88;50.00
34081;BME280;20358;50.272;19.026;2023-01-13T13:29:39;97788.56;;;8.65;51.08
34081;BME280;20358;50.272;19.026;2023-01-13T13:33:05;97794.06;;;8.51;51.43
34081;BME280;20358;50.272;19.026;2023-01-13T13:36:52;97799.25;;;8.40;52.62
34081;BME280;20358;50.272;19.026;2023-01-13T13:40:14;97809.72;;;8.29;52.84
34081;BME280;20358;50.272;19.026;2023-01-13T13:43:39;97796.31;;;8.21;53.71
34081;BME280;20358;50.272;19.026;2023-01-13T13:47:03;97770.53;;;7.89;53.68
34081;BME280;20358;50.272;19.026;2023-01-13T13:50:13;97796.06;;;8.00;53.96
34081;BME280;20358;50.272;19.026;2023-01-13T13:53:28;97801.66;;;7.95;54.59
34081;BME280;20358;50.272;19.026;2023-01-13T13:56:42;97801.88;;;7.92;53.93
34081;BME280;20358;50.272;19.026;2023-01-13T13:59:54;97791.34;;;7.92;54.63
34081;BME280;20358;50.272;19.026;2023-01-13T14:03:21;97804.00;;;7.87;53.37
34081;BME280;20358;50.272;19.026;2023-01-13T14:06:29;97795.59;;;7.82;54.88
34081;BME280;20358;50.272;19.026;2023-01-13T14:09:45;97794.66;;;7.83;54.37
34081;BME280;20358;50.272;19.026;2023-01-13T14:12:53;97799.16;;;7.81;54.47
34081;BME280;20358;50.272;19.026;2023-01-13T14:16:01;97792.69;;;7.74;55.39
34081;BME280;20358;50.272;19.026;2023-01-13T14:19:25;97794.09;;;7.67;55.15
34081;BME280;20358;50.272;19.026;2023-01-13T14:22:34;97802.38;;;7.61;54.51
34081;BME280;20358;50.272;19.026;2023-01-13T14:25:48;97786.13;;;7.56;55.04
34081;BME280;20358;50.272;19.026;2023-01-13T14:28:57;97787.50;;;7.49;55.86
34081;BME280;20358;50.272;19.026;2023-01-13T14:32:06;97803.28;;;7.49;54.62
34081;BME280;20358;50.272;19.026;2023-01-13T14:35:14;97799.16;;;7.45;55.12
34081;BME280;20358;50.272;19.026;2023-01-13T14:38:21;97799.28;;;7.44;54.64
34081;BME280;20358;50.272;19.026;2023-01-13T14:41:33;97799.50;;;7.41;54.54
34081;BME280;20358;50.272;19.026;2023-01-13T14:44:44;97795.50;;;7.35;54.68
34081;BME280;20358;50.272;19.026;2023-01-13T14:47:52;97800.25;;;7.30;54.66
34081;BME280;20358;50.272;19.026;2023-01-13T14:51:00;97799.53;;;7.28;54.97
34081;BME280;20358;50.272;19.026;2023-01-13T14:57:51;97808.34;;;7.27;55.35
34081;BME280;20358;50.272;19.026;2023-01-13T15:01:25;97813.28;;;7.19;55.42
34081;BME280;20358;50.272;19.026;2023-01-13T15:04:34;97816.34;;;7.13;55.10
34081;BME280;20358;50.272;19.026;2023-01-13T15:07:47;97820.56;;;7.03;57.28
34081;BME280;20358;50.272;19.026;2023-01-13T15:10:57;97779.66;;;6.73;57.45
34081;BME280;20358;50.272;19.026;2023-01-13T15:14:10;97823.19;;;6.90;57.73
34081;BME280;20358;50.272;19.026;2023-01-13T15:17:16;97819.91;;;6.87;57.47
34081;BME280;20358;50.272;19.026;2023-01-13T15:20:23;97827.06;;;6.85;57.92
34081;BME280;20358;50.272;19.026;2023-01-13T15:23:30;97821.81;;;6.85;57.69
34081;BME280;20358;50.272;19.026;2023-01-13T15:26:36;97830.41;;;6.87;57.34
34081;BME280;20358;50.272;19.026;2023-01-13T15:29:45;97835.34;;;6.91;56.60
34081;BME280;20358;50.272;19.026;2023-01-13T15:32:52;97822.00;;;6.82;56.61
34081;BME280;20358;50.272;19.026;2023-01-13T15:36:00;97827.88;;;6.85;57.14
34081;BME280;20358;50.272;19.026;2023-01-13T15:39:09;97830.19;;;6.77;56.18
34081;BME280;20358;50.272;19.026;2023-01-13T15:42:17;97827.22;;;6.69;57.28
34081;BME280;20358;50.272;19.026;2023-01-13T15:45:42;97831.16;;;6.62;56.18
34081;BME280;20358;50.272;19.026;2023-01-13T15:49:12;97829.81;;;6.56;56.27
34081;BME280;20358;50.272;19.026;2023-01-13T15:52:26;97838.09;;;6.50;56.33
34081;BME280;20358;50.272;19.026;2023-01-13T15:55:36;97830.03;;;6.53;56.63
34081;BME280;20358;50.272;19.026;2023-01-13T15:58:43;97858.88;;;6.53;56.80
34081;BME280;20358;50.272;19.026;2023-01-13T16:01:52;97860.44;;;6.56;56.33
34081;BME280;20358;50.272;19.026;2023-01-13T16:04:57;97865.97;;;6.51;55.65
34081;BME280;20358;50.272;19.026;2023-01-13T16:08:04;97872.91;;;6.52;56.20
34081;BME280;20358;50.272;19.026;2023-01-13T16:11:11;97863.66;;;6.47;56.31
34081;BME280;20358;50.272;19.026;2023-01-13T16:14:17;97784.75;;;5.98;56.28
34081;BME280;20358;50.272;19.026;2023-01-13T16:17:26;97860.72;;;6.51;56.96
34081;BME280;20358;50.272;19.026;2023-01-13T16:20:32;97857.72;;;6.57;56.96
34081;BME280;20358;50.272;19.026;2023-01-13T16:23:38;97865.38;;;6.60;57.66
34081;BME280;20358;50.272;19.026;2023-01-13T16:26:44;97869.72;;;6.61;57.03
34081;BME280;20358;50.272;19.026;2023-01-13T16:29:51;97856.78;;;6.58;57.64
34081;BME280;20358;50.272;19.026;2023-01-13T16:33:01;97870.59;;;6.48;58.34
34081;BME280;20358;50.272;19.026;2023-01-13T16:36:12;97865.97;;;6.51;58.45
34081;BME280;20358;50.272;19.026;2023-01-13T16:39:21;97875.00;;;6.47;58.05
34081;BME280;20358;50.272;19.026;2023-01-13T16:42:28;97875.13;;;6.46;59.39
34081;BME280;20358;50.272;19.026;2023-01-13T16:45:35;97875.19;;;6.44;59.30
34081;BME280;20358;50.272;19.026;2023-01-13T16:48:43;97877.50;;;6.49;59.04
34081;BME280;20358;50.272;19.026;2023-01-13T16:51:49;97879.00;;;6.53;59.38
34081;BME280;20358;50.272;19.026;2023-01-13T16:54:54;97878.69;;;6.57;59.90
34081;BME280;20358;50.272;19.026;2023-01-13T16:58:03;97872.00;;;6.53;58.64
34081;BME280;20358;50.272;19.026;2023-01-13T17:01:18;97875.53;;;6.52;58.01
34081;BME280;20358;50.272;19.026;2023-01-13T17:04:30;97874.88;;;6.49;57.70
34081;BME280;20358;50.272;19.026;2023-01-13T17:07:35;97872.91;;;6.52;58.56
34081;BME280;20358;50.272;19.026;2023-01-13T17:10:42;97872.72;;;6.55;57.82
34081;BME280;20358;50.272;19.026;2023-01-13T17:13:48;97875.03;;;6.60;57.45